This is the latest recevied weather packets stored in our database for station/object EA1AWV-13. If no packets are shown the sender has not sent any weather packets the latest 10 day(s).
| Time | Temp. | Humidity | Pressure | Rain* | Wind** | Luminosity | Snow |
|---|---|---|---|---|---|---|---|
| 1787508282 | 31.67° C | 50% | 1004.1 hPa | - | - | - | - |
| 1787507682 | 31.67° C | 51% | 1004.2 hPa | - | - | - | - |
| 1787507082 | 31.67° C | 53% | 1004.1 hPa | - | - | - | - |
| 1787506482 | 32.22° C | 54% | 1004.2 hPa | - | - | - | - |
| 1787505882 | 32.78° C | 53% | 1004.4 hPa | - | - | - | - |
| 1787505282 | 32.78° C | 53% | 1004.4 hPa | - | - | - | - |
| 1787504681 | 32.78° C | 52% | 1004.6 hPa | - | - | - | - |
| 1787504082 | 32.22° C | 53% | 1004.6 hPa | - | - | - | - |
| 1787503482 | 32.78° C | 51% | 1004.5 hPa | - | - | - | - |
| 1787502882 | 32.78° C | 48% | 1004.5 hPa | - | - | - | - |
| 1787502281 | 32.78° C | 47% | 1004.7 hPa | - | - | - | - |
| 1787501682 | 33.33° C | 48% | 1004.7 hPa | - | - | - | - |
| 1787501082 | 33.89° C | 48% | 1004.4 hPa | - | - | - | - |
| 1787500482 | 34.44° C | 48% | 1004.4 hPa | - | - | - | - |
| 1787499882 | 33.89° C | 50% | 1004.6 hPa | - | - | - | - |
| 1787499281 | 33.33° C | 51% | 1004.9 hPa | - | - | - | - |
| 1787498682 | 33.89° C | 51% | 1004.9 hPa | - | - | - | - |
| 1787498081 | 33.33° C | 53% | 1005 hPa | - | - | - | - |
| 1787497481 | 34.44° C | 56% | 1004.7 hPa | - | - | - | - |
| 1787496881 | 33.33° C | 55% | 1005.1 hPa | - | - | - | - |
| 1787496281 | 33.33° C | 54% | 1005.1 hPa | - | - | - | - |
| 1787495681 | 33.33° C | 53% | 1005.3 hPa | - | - | - | - |
| 1787495081 | 33.33° C | 51% | 1005.3 hPa | - | - | - | - |
| 1787494481 | 32.78° C | 48% | 1005.5 hPa | - | - | - | - |
| 1787493881 | 33.33° C | 53% | 1005.5 hPa | - | - | - | - |
* Rain since midnight (hover to see other rain measurements)
** Current wind speed in m/s (hover to see current wind gust speed)